Portada
METAR-TAF:

METAR-TAF

Aeroports :

Loei, Tailàndia

latitud: 17-27N, longitud: 101-44E, altitud: 253 m

Observació

L'informe es va fer fa 46 minuts, a les 00:00 UTC
Vent calma
Temperatura 22°C
Humitat 94%
Pressió 1013 hPa
Visibilitat: 4000 m
boirina

METAR: VTUL 040000Z 00000KT 4000 BR NSC 22/21 Q1013 NOSIG

Hora: 07:46 (00:46 UTC)

Pronòstic

L'informe es va fer fa 1 hora i 46 minuts, a les 23:00 UTC
Pronòstic vàlid del 04 a les 00 UTC al 04 a les 24 UTC
Vent 2 kt del Oest/Sud-Oest
Visibilitat: 6000 m
Escasses núvols a una alçada de 3000 ft
Temporalment
l' 04 a les 08 UTC al 04 a les 15 UTC
Visibilitat: 5000 m
Escasses núvols a una alçada de 1800 ft, Cumulonimbus.
Cel ennuvolat a una alçada de 3000 ft
tempesta, pluja

TAF: VTUL 032300Z 0400/0424 25002KT 6000 FEW030 TEMPO 0408/0415 5000 TSRA FEW018CB BKN030

Observacions i pronòstics meteorològics de més de 4000 aeroports (METAR i TAF).

Les estacions disponibles són els punts grocs i vermells al mapa.

Posi el ratolí al punt desitjat per veure el nom de l'estació.

Feu clic per veure les observacions i els pronòstics meteorològics.

Per canviar el mapa: feu clic els botons verds amb una creu de color negre per apropar; al botó verd amb un guió per allunyar la imatge; o en les fletxes verdes per a mapes adjacents.


METAR-TAF: